Time;durP1;ratioP1;P1;durP2;ratioP2;P2;SDS_P1;SDS_P2;PMS_P1;PMS_P2;Temp;Humidity;BMP_temperature;BMP_pressure;BME280_temperature;BME280_humidity;BME280_pressure;Samples;Min_cycle;Max_cycle;Signal;HPM_P1;HPM_P2
2023/05/05 00:00:53;;;;;;;1.63;1.20;;;15.40;99.90;;;;;;5073535;28;20108;-75
2023/05/05 00:03:20;;;;;;;4.43;1.40;;;15.40;99.90;;;;;;5073598;28;20024;-75
2023/05/05 00:05:47;;;;;;;3.13;1.27;;;15.50;99.90;;;;;;5073396;28;20420;-75
2023/05/05 00:08:13;;;;;;;2.85;1.10;;;15.30;99.90;;;;;;5073383;28;20095;-75
2023/05/05 00:10:38;;;;;;;2.35;1.50;;;15.30;99.90;;;;;;5073426;28;20029;-75
2023/05/05 00:13:04;;;;;;;4.78;1.55;;;15.30;99.90;;;;;;5055422;28;20111;-75
2023/05/05 00:15:29;;;;;;;5.40;1.75;;;15.20;99.90;;;;;;5073346;28;20029;-75
2023/05/05 00:17:55;;;;;;;4.72;1.40;;;15.20;99.90;;;;;;5073246;28;20511;-75
2023/05/05 00:20:21;;;;;;;2.28;1.52;;;15.20;99.90;;;;;;5073220;28;20020;-75
2023/05/05 00:22:47;;;;;;;5.63;2.08;;;15.20;99.90;;;;;;5073282;28;20071;-75
2023/05/05 00:25:13;;;;;;;4.43;1.67;;;15.20;99.90;;;;;;5073230;28;20522;-75
2023/05/05 00:27:38;;;;;;;2.55;1.77;;;15.10;99.90;;;;;;5054839;28;20078;-75
2023/05/05 00:30:04;;;;;;;6.35;2.00;;;15.10;99.90;;;;;;5055582;28;20386;-75
2023/05/05 00:32:30;;;;;;;5.93;1.90;;;15.10;99.90;;;;;;5073696;28;20032;-75
2023/05/05 00:34:56;;;;;;;4.78;2.35;;;15.10;99.90;;;;;;5073161;28;20021;-75
2023/05/05 00:37:21;;;;;;;5.85;2.10;;;15.00;99.90;;;;;;5073050;28;20062;-75
2023/05/05 00:39:47;;;;;;;5.82;2.33;;;15.00;99.90;;;;;;5073172;28;20017;-75
2023/05/05 00:42:12;;;;;;;5.43;3.10;;;15.20;99.90;;;;;;5055195;28;20434;-75
2023/05/05 00:44:41;;;;;;;5.10;2.35;;;15.10;99.90;;;;;;5055649;28;20024;-75
2023/05/05 00:47:08;;;;;;;5.80;2.85;;;15.10;99.90;;;;;;5055097;28;20381;-76
2023/05/05 00:49:34;;;;;;;9.02;4.30;;;15.10;99.90;;;;;;5072975;28;20020;-76
2023/05/05 00:52:00;;;;;;;8.38;4.82;;;;;;;;;;5072858;28;20032;-76
2023/05/05 00:54:26;;;;;;;9.43;4.25;;;15.30;99.90;;;;;;5073489;28;20032;-76
2023/05/05 00:56:52;;;;;;;7.55;4.82;;;15.30;99.90;;;;;;5054940;28;20028;-76
2023/05/05 00:59:18;;;;;;;6.38;3.58;;;15.30;99.90;;;;;;5072673;28;20119;-76
2023/05/05 01:01:44;;;;;;;8.32;4.45;;;15.40;99.90;;;;;;5072894;28;20093;-76
2023/05/05 01:04:10;;;;;;;6.70;3.75;;;15.50;99.90;;;;;;5073306;28;20024;-76
2023/05/05 01:06:41;;;;;;;11.13;5.05;;;15.60;99.90;;;;;;5073289;28;20024;-76
2023/05/05 01:09:37;;;;;;;7.60;4.00;;;15.60;99.90;;;;;;5054843;28;20024;-76
2023/05/05 01:12:33;;;;;;;6.72;3.53;;;15.60;99.90;;;;;;5072712;28;20488;-76
2023/05/05 01:15:20;;;;;;;5.95;3.75;;;15.60;99.90;;;;;;5072799;28;20050;-76
2023/05/05 01:17:58;;;;;;;6.47;3.65;;;15.50;99.90;;;;;;5072688;28;20150;-76
2023/05/05 01:20:31;;;;;;;8.10;3.42;;;15.50;99.90;;;;;;5054784;28;20017;-76
2023/05/05 01:23:02;;;;;;;8.32;3.80;;;15.40;99.90;;;;;;5072711;28;20039;-76
2023/05/05 01:26:05;;;;;;;8.05;3.85;;;15.40;99.90;;;;;;5073344;28;20052;-76
2023/05/05 01:29:01;;;;;;;6.03;2.97;;;15.30;99.90;;;;;;5072624;28;20032;-76
2023/05/05 01:31:39;;;;;;;6.30;3.65;;;15.30;99.90;;;;;;5073142;28;20021;-76
2023/05/05 01:34:08;;;;;;;5.68;3.10;;;15.20;99.90;;;;;;5072618;28;20380;-76
2023/05/05 01:36:45;;;;;;;5.80;3.28;;;15.20;99.90;;;;;;5072562;28;20013;-76
2023/05/05 01:39:15;;;;;;;8.15;3.20;;;15.20;99.90;;;;;;5072494;28;20021;-76
2023/05/05 01:41:49;;;;;;;6.07;2.90;;;15.20;99.90;;;;;;5057937;28;20031;-76
2023/05/05 01:44:18;;;;;;;6.10;2.42;;;15.10;99.90;;;;;;5076090;28;20028;-76
2023/05/05 01:46:44;;;;;;;;;;;15.10;99.90;;;;;;5058853;28;20039;-76
2023/05/05 01:49:11;;;;;;;2.80;1.58;;;15.10;99.90;;;;;;5058058;28;19912;-76
2023/05/05 01:51:38;;;;;;;5.47;1.38;;;15.20;99.90;;;;;;5075836;28;20025;-76
2023/05/05 01:54:08;;;;;;;2.70;1.08;;;15.20;99.90;;;;;;5076012;28;20078;-76
2023/05/05 01:56:37;;;;;;;1.65;0.90;;;15.30;99.90;;;;;;5075877;28;20434;-76
2023/05/05 01:59:03;;;;;;;;;;;15.30;99.90;;;;;;5058087;28;20028;-76
2023/05/05 02:01:30;;;;;;;2.28;1.30;;;15.30;99.90;;;;;;5057908;28;20325;-76
2023/05/05 02:03:57;;;;;;;3.90;1.20;;;15.30;99.90;;;;;;5057810;28;20104;-76
2023/05/05 02:06:25;;;;;;;3.60;1.75;;;15.40;99.90;;;;;;5057863;28;20119;-76
2023/05/05 02:08:52;;;;;;;3.58;1.10;;;15.30;99.90;;;;;;5075615;28;20071;-76
2023/05/05 02:11:20;;;;;;;2.60;1.30;;;15.30;99.90;;;;;;5075902;28;20384;-76
2023/05/05 02:13:47;;;;;;;3.92;1.40;;;15.30;99.90;;;;;;5057605;28;20095;-76
2023/05/05 02:16:13;;;;;;;3.50;1.33;;;15.10;99.90;;;;;;5076042;28;20012;-76
2023/05/05 02:18:40;;;;;;;5.15;1.17;;;14.90;99.90;;;;;;5075978;28;20561;-76
2023/05/05 02:21:06;;;;;;;7.07;1.80;;;14.90;99.90;;;;;;5057470;28;20116;-76
2023/05/05 02:23:32;;;;;;;3.70;1.90;;;14.70;99.90;;;;;;5075462;28;20021;-76
2023/05/05 02:26:06;;;;;;;4.03;2.05;;;14.70;99.90;;;;;;5075304;28;20043;-76
2023/05/05 02:28:49;;;;;;;3.25;1.42;;;14.50;99.90;;;;;;5057278;28;20035;-76
2023/05/05 02:31:16;;;;;;;4.63;2.30;;;14.50;99.90;;;;;;5057313;28;20107;-76
2023/05/05 02:33:43;;;;;;;9.45;1.98;;;14.40;99.90;;;;;;5075141;28;20020;-76
2023/05/05 02:36:16;;;;;;;3.38;1.40;;;14.20;99.90;;;;;;5075715;28;20052;-76
2023/05/05 02:38:44;;;;;;;3.95;1.65;;;14.10;99.90;;;;;;5075161;28;20070;-76
2023/05/05 02:41:15;;;;;;;5.55;1.83;;;14.10;99.90;;;;;;5075045;28;20017;-76
2023/05/05 02:43:42;;;;;;;3.42;1.42;;;14.00;99.90;;;;;;5075075;28;20103;-76
2023/05/05 02:46:08;;;;;;;2.85;1.52;;;13.90;99.90;;;;;;5056966;28;20093;-76
2023/05/05 02:48:33;;;;;;;3.58;1.92;;;13.80;99.90;;;;;;5075135;28;20020;-76
2023/05/05 02:50:59;;;;;;;4.85;2.03;;;14.00;99.90;;;;;;5074517;28;20016;-76
2023/05/05 02:53:26;;;;;;;5.22;2.05;;;13.70;99.90;;;;;;5075314;28;20032;-76
2023/05/05 02:56:27;;;;;;;4.63;1.92;;;13.60;99.90;;;;;;5056785;28;20025;-76
2023/05/05 02:59:32;;;;;;;3.22;1.60;;;13.50;99.90;;;;;;5067321;28;20508;-76
2023/05/05 03:02:17;;;;;;;8.00;1.95;;;13.50;99.90;;;;;;5075219;28;20388;-73
2023/05/05 03:05:18;;;;;;;4.47;2.50;;;13.40;99.90;;;;;;5056853;28;20020;-76
2023/05/05 03:07:54;;;;;;;7.60;2.63;;;13.30;99.90;;;;;;5057325;28;20032;-73
2023/05/05 03:10:27;;;;;;;6.32;2.92;;;13.20;99.90;;;;;;5056781;28;20384;-76
2023/05/05 03:12:56;;;;;;;3.97;2.40;;;13.20;99.90;;;;;;5074447;28;20030;-76
2023/05/05 03:15:29;;;;;;;5.57;2.30;;;13.20;99.90;;;;;;5074319;28;20028;-76
2023/05/05 03:17:57;;;;;;;3.97;1.73;;;13.20;99.90;;;;;;5056800;28;20027;-73
2023/05/05 03:20:23;;;;;;;4.03;2.17;;;13.20;99.90;;;;;;5074316;28;20052;-76
2023/05/05 03:22:50;;;;;;;4.05;1.52;;;13.20;99.90;;;;;;5056403;28;20361;-73
2023/05/05 03:25:15;;;;;;;4.00;2.28;;;13.20;99.90;;;;;;5074724;28;20410;-76
2023/05/05 03:27:41;;;;;;;4.45;2.33;;;13.20;99.90;;;;;;5073998;28;20025;-76
2023/05/05 03:30:07;;;;;;;5.30;1.73;;;13.10;99.90;;;;;;5074261;28;20032;-76
2023/05/05 03:32:33;;;;;;;4.72;2.40;;;13.20;99.90;;;;;;5073980;28;20029;-76
2023/05/05 03:34:58;;;;;;;4.53;1.80;;;13.20;99.90;;;;;;5073955;28;20583;-73
2023/05/05 03:37:24;;;;;;;2.22;1.42;;;13.10;99.90;;;;;;5073894;28;20084;-74
2023/05/05 03:39:49;;;;;;;2.90;1.30;;;13.10;99.90;;;;;;5055961;28;20051;-74
2023/05/05 03:42:15;;;;;;;6.03;2.38;;;13.10;99.90;;;;;;5055977;28;20096;-74
2023/05/05 03:44:40;;;;;;;4.28;1.98;;;13.10;99.90;;;;;;5073870;28;20494;-74
2023/05/05 03:47:06;;;;;;;2.50;1.27;;;12.90;99.90;;;;;;5074039;28;20039;-74
2023/05/05 03:49:31;;;;;;;5.13;1.27;;;13.40;99.90;;;;;;5055863;28;20115;-74
2023/05/05 03:51:57;;;;;;;4.00;1.40;;;12.90;99.90;;;;;;5055696;28;20025;-74
2023/05/05 03:54:23;;;;;;;2.55;0.55;;;12.80;99.90;;;;;;5073703;28;20021;-74
2023/05/05 03:56:48;;;;;;;1.10;0.55;;;12.80;99.90;;;;;;5073728;28;20025;-74
2023/05/05 03:59:14;;;;;;;7.07;0.95;;;12.80;99.90;;;;;;5073426;28;20056;-74
2023/05/05 04:01:40;;;;;;;2.00;0.68;;;13.10;99.90;;;;;;5073603;28;20086;-74
2023/05/05 04:04:08;;;;;;;2.85;0.63;;;;;;;;;;5072914;28;20033;-76
2023/05/05 04:06:33;;;;;;;2.80;1.02;;;12.80;99.90;;;;;;5073583;28;20441;-74
2023/05/05 04:08:59;;;;;;;2.40;1.17;;;12.90;99.90;;;;;;5055527;28;20021;-74
2023/05/05 04:11:25;;;;;;;2.10;0.88;;;12.90;99.90;;;;;;5073927;28;20029;-74
2023/05/05 04:13:50;;;;;;;3.00;1.02;;;13.10;99.90;;;;;;5055458;28;20028;-74
2023/05/05 04:16:16;;;;;;;3.33;1.15;;;13.00;99.90;;;;;;5073353;28;20025;-73
2023/05/05 04:18:41;;;;;;;5.53;1.50;;;13.00;99.90;;;;;;5073272;28;20025;-74
2023/05/05 04:21:07;;;;;;;3.17;1.30;;;13.00;99.90;;;;;;5073333;28;20016;-74
2023/05/05 04:23:32;;;;;;;3.83;2.20;;;13.00;99.90;;;;;;5073254;28;20024;-74
2023/05/05 04:25:58;;;;;;;6.20;2.45;;;13.00;99.90;;;;;;5055304;28;20121;-73
2023/05/05 04:28:23;;;;;;;5.63;2.10;;;13.00;99.90;;;;;;5073104;28;20028;-74
2023/05/05 04:30:49;;;;;;;5.97;2.90;;;13.00;99.90;;;;;;5073186;28;20396;-74
2023/05/05 04:33:15;;;;;;;5.53;2.33;;;13.70;99.90;;;;;;5073113;28;20056;-74
2023/05/05 04:35:40;;;;;;;5.55;2.00;;;13.00;99.90;;;;;;5055091;28;20109;-74
2023/05/05 04:38:06;;;;;;;4.43;2.45;;;13.00;99.90;;;;;;5073581;28;20448;-74
2023/05/05 04:40:31;;;;;;;7.20;2.80;;;13.00;99.90;;;;;;5073042;28;20051;-74
2023/05/05 04:42:57;;;;;;;7.93;2.75;;;13.00;99.90;;;;;;5055143;28;20030;-74
2023/05/05 04:45:22;;;;;;;6.38;2.58;;;13.00;99.90;;;;;;5055076;28;20020;-74
2023/05/05 04:47:48;;;;;;;8.63;2.75;;;13.00;99.90;;;;;;5072945;28;20056;-74
2023/05/05 04:50:14;;;;;;;6.82;3.20;;;12.90;99.90;;;;;;5073003;28;20024;-74
2023/05/05 04:52:39;;;;;;;13.35;3.35;;;12.90;99.90;;;;;;5073478;28;20057;-74
2023/05/05 04:55:05;;;;;;;10.88;4.18;;;13.00;99.90;;;;;;5054928;28;20070;-74
2023/05/05 04:57:31;;;;;;;8.05;3.38;;;13.10;99.90;;;;;;5072786;28;20471;-74
2023/05/05 04:59:58;;;;;;;9.05;3.80;;;13.10;99.90;;;;;;5072839;28;20112;-74
2023/05/05 05:02:24;;;;;;;9.52;3.90;;;13.20;99.90;;;;;;5054844;28;20414;-74
2023/05/05 05:04:49;;;;;;;10.82;3.65;;;13.20;99.90;;;;;;5072878;28;20029;-74
2023/05/05 05:07:15;;;;;;;8.55;4.03;;;13.30;99.90;;;;;;5072684;28;20070;-74
2023/05/05 05:09:41;;;;;;;12.00;4.10;;;13.30;99.90;;;;;;5072761;28;20170;-74
2023/05/05 05:12:06;;;;;;;12.40;4.53;;;13.50;99.90;;;;;;5073078;28;20466;-74
2023/05/05 05:14:36;;;;;;;12.20;4.40;;;13.60;99.90;;;;;;5056626;28;20020;-74
2023/05/05 05:17:05;;;;;;;14.48;5.50;;;13.70;99.90;;;;;;5076690;28;20479;-73
2023/05/05 05:19:31;;;;;;;;;;;13.70;99.90;;;;;;5059108;28;20040;-73
2023/05/05 05:21:56;;;;;;;8.38;3.88;;;13.70;99.90;;;;;;5076597;28;19904;-73
2023/05/05 05:24:23;;;;;;;13.70;4.90;;;13.90;99.90;;;;;;5076573;28;20028;-73
2023/05/05 05:26:49;;;;;;;10.70;4.55;;;13.90;99.90;;;;;;5076473;28;20418;-73
2023/05/05 05:29:15;;;;;;;10.90;5.00;;;13.90;99.90;;;;;;5076327;28;20039;-73
2023/05/05 05:31:40;;;;;;;15.90;6.22;;;13.90;99.90;;;;;;5076277;28;20111;-73
2023/05/05 05:34:06;;;;;;;10.20;4.65;;;14.10;99.90;;;;;;5076322;28;20055;-73
2023/05/05 05:36:31;;;;;;;13.25;5.22;;;14.10;99.90;;;;;;5058383;28;20024;-73
2023/05/05 05:38:57;;;;;;;15.27;5.53;;;14.20;99.90;;;;;;5076101;28;20535;-73
2023/05/05 05:41:25;;;;;;;13.13;5.63;;;14.30;99.90;;;;;;5076259;28;20383;-73
2023/05/05 05:43:51;;;;;;;11.55;5.03;;;14.10;99.90;;;;;;5076164;28;20531;-73
2023/05/05 05:46:17;;;;;;;11.27;5.00;;;15.50;99.90;;;;;;5076066;28;20096;-73
2023/05/05 05:48:42;;;;;;;11.70;5.07;;;14.50;99.90;;;;;;5058014;28;20019;-73
2023/05/05 05:51:08;;;;;;;10.90;5.15;;;14.70;99.90;;;;;;5076048;28;20017;-73
2023/05/05 05:53:33;;;;;;;15.90;6.30;;;14.70;99.90;;;;;;5075835;28;20020;-73
2023/05/05 05:56:00;;;;;;;12.65;5.40;;;14.80;99.90;;;;;;5075877;28;20388;-73
2023/05/05 05:58:25;;;;;;;13.82;6.10;;;14.90;99.90;;;;;;5057804;28;20016;-73
2023/05/05 06:00:51;;;;;;;16.98;6.35;;;14.90;99.90;;;;;;5076404;28;20050;-73
2023/05/05 06:03:17;;;;;;;13.68;5.75;;;15.00;99.90;;;;;;5057870;28;20036;-73
2023/05/05 06:05:44;;;;;;;17.42;7.20;;;15.10;99.90;;;;;;5075723;28;20035;-73
2023/05/05 06:08:10;;;;;;;16.40;6.72;;;15.20;99.90;;;;;;5057682;28;20090;-73
2023/05/05 06:10:35;;;;;;;14.30;6.88;;;15.20;99.90;;;;;;5075642;28;20496;-73
2023/05/05 06:13:01;;;;;;;18.35;7.45;;;15.40;99.90;;;;;;5057527;28;20032;-73
2023/05/05 06:15:26;;;;;;;13.55;6.45;;;15.20;99.90;;;;;;5057635;28;20066;-73
2023/05/05 06:17:52;;;;;;;14.93;6.15;;;15.50;99.90;;;;;;5076078;28;20027;-73
2023/05/05 06:20:17;;;;;;;11.18;6.53;;;15.50;99.90;;;;;;5075578;28;20542;-73
2023/05/05 06:22:43;;;;;;;14.45;7.18;;;15.50;99.90;;;;;;5075755;28;20036;-73
2023/05/05 06:25:09;;;;;;;16.48;6.50;;;15.50;99.90;;;;;;5057309;28;20025;-73
2023/05/05 06:27:35;;;;;;;15.80;6.15;;;15.70;99.90;;;;;;5075546;28;20017;-73
2023/05/05 06:30:00;;;;;;;14.18;6.75;;;15.70;99.90;;;;;;5075428;28;20365;-73
2023/05/05 06:32:26;;;;;;;10.52;6.30;;;15.80;99.90;;;;;;5075379;28;20032;-73
2023/05/05 06:34:52;;;;;;;13.80;6.15;;;16.00;99.90;;;;;;5075901;28;20101;-73
2023/05/05 06:37:17;;;;;;;14.35;6.85;;;16.00;99.90;;;;;;5075762;28;20571;-73
2023/05/05 06:39:43;;;;;;;10.68;5.60;;;16.10;99.90;;;;;;5075254;28;20039;-73
2023/05/05 06:42:08;;;;;;;12.23;5.28;;;16.10;99.90;;;;;;5075897;28;20027;-73
2023/05/05 06:44:35;;;;;;;12.07;5.38;;;16.20;99.90;;;;;;5075154;28;20035;-73
2023/05/05 06:47:01;;;;;;;12.80;6.15;;;16.40;99.90;;;;;;5075083;28;20020;-73
2023/05/05 06:49:27;;;;;;;13.98;4.88;;;;;;;;;;5075674;28;20020;-73
2023/05/05 06:51:53;;;;;;;11.25;4.85;;;16.40;99.90;;;;;;5057191;28;20029;-73
2023/05/05 06:54:18;;;;;;;9.80;5.03;;;16.40;99.90;;;;;;5075228;28;20075;-73
2023/05/05 06:56:44;;;;;;;9.65;3.88;;;16.50;99.90;;;;;;5075361;28;20020;-73
2023/05/05 06:59:10;;;;;;;9.10;3.85;;;16.50;99.90;;;;;;5075331;28;20052;-74
2023/05/05 07:01:36;;;;;;;8.98;3.45;;;16.70;99.90;;;;;;5075235;28;20013;-75
2023/05/05 07:04:01;;;;;;;10.70;3.67;;;16.70;99.90;;;;;;5091447;28;20384;-73
2023/05/05 07:06:27;;;;;;;7.57;3.78;;;16.80;99.90;;;;;;5095015;28;20498;-73
2023/05/05 07:08:52;;;;;;;6.32;3.25;;;16.90;99.90;;;;;;5076654;28;20111;-73
2023/05/05 07:11:18;;;;;;;8.13;3.38;;;17.10;99.90;;;;;;5094960;28;20162;-73
2023/05/05 07:13:44;;;;;;;9.20;3.40;;;17.10;99.90;;;;;;5095464;28;20133;-73
2023/05/05 07:16:09;;;;;;;14.13;3.58;;;18.00;99.90;;;;;;5095331;28;20099;-73
2023/05/05 07:18:35;;;;;;;8.05;2.50;;;17.80;99.90;;;;;;5094731;28;20024;-73
2023/05/05 07:21:05;;;;;;;5.25;2.50;;;17.80;99.90;;;;;;5094622;28;20028;-73
2023/05/05 07:23:31;;;;;;;8.40;3.38;;;18.00;99.90;;;;;;5094827;28;20034;-73
2023/05/05 07:25:56;;;;;;;6.18;2.90;;;18.20;99.90;;;;;;5094760;28;20020;-73
2023/05/05 07:28:22;;;;;;;6.55;2.83;;;18.20;99.90;;;;;;5094390;28;20054;-73
2023/05/05 07:30:47;;;;;;;4.95;1.80;;;18.30;99.90;;;;;;5076317;28;20036;-75
2023/05/05 07:33:13;;;;;;;10.40;2.15;;;18.50;99.90;;;;;;5094525;28;20024;-73
2023/05/05 07:35:39;;;;;;;7.47;1.63;;;18.50;99.90;;;;;;5094300;28;20095;-73
2023/05/05 07:38:05;;;;;;;5.68;1.25;;;18.60;99.90;;;;;;5093384;28;20017;-73
2023/05/05 07:40:32;;;;;;;3.47;1.20;;;18.50;99.90;;;;;;5094340;28;20535;-73
2023/05/05 07:42:58;;;;;;;4.88;1.48;;;18.70;99.90;;;;;;5094193;28;20024;-73
2023/05/05 07:45:23;;;;;;;3.80;1.25;;;18.70;99.90;;;;;;5094308;28;20032;-73
2023/05/05 07:47:49;;;;;;;5.38;1.30;;;18.70;99.90;;;;;;5094046;28;20158;-73
2023/05/05 07:50:15;;;;;;;4.07;1.05;;;18.80;99.90;;;;;;5094054;28;20028;-73
2023/05/05 07:52:40;;;;;;;1.77;0.73;;;18.70;99.90;;;;;;5094055;28;20089;-73
2023/05/05 07:55:06;;;;;;;5.22;0.88;;;18.50;99.90;;;;;;5094297;28;20024;-73
2023/05/05 07:57:32;;;;;;;3.53;1.05;;;18.70;99.90;;;;;;5093989;28;20391;-73
2023/05/05 07:59:57;;;;;;;5.65;1.08;;;18.80;99.90;;;;;;5075717;28;20119;-73
2023/05/05 08:02:23;;;;;;;7.97;1.10;;;18.80;99.90;;;;;;5075685;28;20059;-73
2023/05/05 08:04:48;;;;;;;3.88;0.70;;;19.00;99.90;;;;;;5075688;28;20027;-74
2023/05/05 08:07:14;;;;;;;6.20;1.75;;;19.30;99.90;;;;;;5094400;28;20103;-73
2023/05/05 08:09:40;;;;;;;2.40;0.50;;;19.20;99.90;;;;;;5075635;28;20103;-74
2023/05/05 08:12:06;;;;;;;5.32;2.38;;;19.50;99.90;;;;;;5075700;28;20085;-73
2023/05/05 08:14:31;;;;;;;3.63;1.13;;;19.60;99.90;;;;;;5075575;28;20017;-73
2023/05/05 08:16:57;;;;;;;6.57;2.17;;;19.60;99.90;;;;;;5093638;28;20027;-74
2023/05/05 08:19:23;;;;;;;5.88;1.55;;;19.70;99.90;;;;;;5075546;28;20059;-74
2023/05/05 08:21:49;;;;;;;4.18;1.50;;;19.90;99.90;;;;;;5075594;28;20046;-74
2023/05/05 08:24:14;;;;;;;7.40;1.75;;;20.00;99.90;;;;;;5093867;28;20024;-74
2023/05/05 08:26:40;;;;;;;3.88;1.33;;;20.30;99.90;;;;;;5093504;28;20039;-73
2023/05/05 08:29:05;;;;;;;11.38;2.63;;;20.20;99.90;;;;;;5093391;28;20020;-74
2023/05/05 08:31:33;;;;;;;4.18;1.50;;;20.40;99.90;;;;;;5086697;28;20021;-73
2023/05/05 08:33:59;;;;;;;4.20;1.10;;;;;;;;;;5073269;28;20031;-73
2023/05/05 08:36:26;;;;;;;4.40;1.25;;;21.10;99.90;;;;;;5073223;28;20028;-73
2023/05/05 08:38:51;;;;;;;6.95;2.30;;;21.10;99.90;;;;;;5055183;28;20499;-74
2023/05/05 08:41:18;;;;;;;6.97;1.90;;;21.30;99.90;;;;;;5055184;28;20020;-74
2023/05/05 08:43:53;;;;;;;3.13;1.30;;;20.80;99.90;;;;;;5055372;28;20029;-74
2023/05/05 08:46:19;;;;;;;2.17;0.85;;;20.70;99.90;;;;;;5073606;28;20061;-74
2023/05/05 08:48:46;;;;;;;4.40;0.95;;;20.30;99.90;;;;;;5073480;28;20383;-73
2023/05/05 08:51:18;;;;;;;1.58;0.70;;;20.20;99.90;;;;;;5059525;28;20227;-73
2023/05/05 08:54:01;;;;;;;2.85;0.70;;;20.00;99.90;;;;;;5059233;28;20031;-73
2023/05/05 08:56:32;;;;;;;4.38;1.08;;;19.90;99.90;;;;;;5078016;28;20024;-74
2023/05/05 08:58:58;;;;;;;9.20;1.42;;;19.90;99.90;;;;;;5059142;28;20547;-73
2023/05/05 09:01:24;;;;;;;2.67;1.20;;;19.70;99.90;;;;;;5077185;28;20020;-74
2023/05/05 09:03:51;;;;;;;2.67;1.17;;;19.80;99.90;;;;;;5077030;28;20031;-74
2023/05/05 09:06:21;;;;;;;3.47;1.65;;;19.90;99.90;;;;;;5077064;28;20021;-74
2023/05/05 09:08:48;;;;;;;5.07;1.35;;;19.80;99.90;;;;;;5059096;28;20024;-73
2023/05/05 09:11:13;;;;;;;4.65;1.52;;;19.90;99.90;;;;;;5058980;28;20020;-73
2023/05/05 09:13:39;;;;;;;5.25;1.52;;;19.90;99.90;;;;;;5059103;28;20112;-74
2023/05/05 09:16:04;;;;;;;5.55;1.85;;;19.90;99.90;;;;;;5076974;28;20105;-74
2023/05/05 09:18:30;;;;;;;2.72;1.27;;;19.90;99.90;;;;;;5059043;28;20025;-74
2023/05/05 09:20:56;;;;;;;3.95;1.92;;;19.70;99.90;;;;;;5077010;28;20415;-74
2023/05/05 09:23:21;;;;;;;2.88;0.73;;;19.70;99.90;;;;;;5076920;28;20070;-74
2023/05/05 09:26:03;;;;;;;3.42;0.60;;;19.60;99.90;;;;;;5077296;28;20031;-74
2023/05/05 09:28:28;;;;;;;3.50;0.90;;;19.70;99.90;;;;;;5076735;28;20499;-74
2023/05/05 09:30:54;;;;;;;2.53;0.80;;;19.80;99.90;;;;;;5077033;28;20028;-74
2023/05/05 09:33:30;;;;;;;2.70;0.60;;;19.80;99.90;;;;;;5058672;28;20078;-74
2023/05/05 09:35:55;;;;;;;1.10;0.50;;;19.80;99.90;;;;;;5076718;28;20017;-74
2023/05/05 09:38:23;;;;;;;2.38;0.60;;;19.60;99.90;;;;;;5058606;28;20032;-74
2023/05/05 09:40:50;;;;;;;6.32;1.58;;;19.40;99.90;;;;;;5058751;28;20059;-74
2023/05/05 09:43:18;;;;;;;3.13;1.05;;;19.20;99.90;;;;;;5076351;28;20078;-72
2023/05/05 09:45:44;;;;;;;3.22;0.98;;;19.40;99.90;;;;;;5076127;28;20028;-73
2023/05/05 09:48:28;;;;;;;2.20;0.45;;;18.40;99.90;;;;;;5058012;28;20029;-74
2023/05/05 09:50:55;;;;;;;4.25;0.10;;;17.90;99.90;;;;;;5075920;28;20036;-74
2023/05/05 09:53:21;;;;;;;1.42;0.10;;;;;;;;;;5057894;28;20490;-74
2023/05/05 09:55:53;;;;;;;1.30;0.10;;;16.90;99.90;;;;;;5058012;28;20020;-74
2023/05/05 09:58:22;;;;;;;4.63;0.52;;;16.70;99.90;;;;;;5075982;28;20400;-74
2023/05/05 10:00:48;;;;;;;2.65;0.45;;;16.60;99.90;;;;;;5074822;28;20488;-74
2023/05/05 10:03:14;;;;;;;3.03;0.10;;;16.40;99.90;;;;;;5075639;28;20385;-74
2023/05/05 10:05:55;;;;;;;3.95;0.43;;;16.40;99.90;;;;;;5075762;28;20021;-74
2023/05/05 10:08:24;;;;;;;2.13;0.20;;;16.20;99.90;;;;;;5075537;28;20032;-74
2023/05/05 10:10:52;;;;;;;1.80;0.10;;;16.20;99.90;;;;;;5057626;28;20029;-74
2023/05/05 10:13:20;;;;;;;4.07;0.63;;;16.20;99.90;;;;;;5075546;28;20029;-72
2023/05/05 10:15:51;;;;;;;1.10;0.10;;;16.30;99.90;;;;;;5075707;28;20265;-72
2023/05/05 10:18:24;;;;;;;3.10;0.10;;;16.40;99.90;;;;;;5075677;28;20107;-72
2023/05/05 10:20:59;;;;;;;3.50;0.30;;;16.30;99.90;;;;;;5075572;28;20021;-72
2023/05/05 10:23:34;;;;;;;3.72;0.20;;;16.30;99.90;;;;;;5076030;28;20028;-72
2023/05/05 10:26:03;;;;;;;0.10;0.00;;;16.30;99.90;;;;;;5075505;28;20032;-72
2023/05/05 10:28:36;;;;;;;1.60;0.20;;;16.30;99.90;;;;;;5075274;28;20025;-72
2023/05/05 10:31:08;;;;;;;1.60;0.10;;;16.30;99.90;;;;;;5057477;28;20036;-72
2023/05/05 10:33:43;;;;;;;3.50;0.30;;;16.30;99.90;;;;;;5075192;28;20016;-72
2023/05/05 10:36:10;;;;;;;0.98;0.17;;;16.20;99.90;;;;;;5057348;28;20020;-72
2023/05/05 10:38:36;;;;;;;1.77;0.43;;;16.00;99.90;;;;;;5075201;28;20096;-72
2023/05/05 10:41:03;;;;;;;2.65;0.50;;;16.00;99.90;;;;;;5075149;28;20537;-72
2023/05/05 10:43:30;;;;;;;1.65;0.52;;;15.90;99.90;;;;;;5075093;28;20029;-72
2023/05/05 10:45:56;;;;;;;5.20;1.20;;;15.90;99.90;;;;;;5075141;28;20024;-72
2023/05/05 10:48:30;;;;;;;0.65;0.32;;;15.80;99.90;;;;;;5056995;28;20024;-72
2023/05/05 10:51:07;;;;;;;1.42;0.60;;;15.70;99.90;;;;;;5075022;28;20025;-72
2023/05/05 10:53:41;;;;;;;4.97;1.05;;;15.70;99.90;;;;;;5074880;28;20540;-72
2023/05/05 10:56:10;;;;;;;1.92;0.98;;;15.70;99.90;;;;;;5074882;28;20013;-72
2023/05/05 10:58:37;;;;;;;4.03;1.30;;;15.60;99.90;;;;;;5075063;28;20482;-72
2023/05/05 11:01:04;;;;;;;5.25;1.35;;;15.50;99.90;;;;;;5074664;28;20490;-73
2023/05/05 11:03:30;;;;;;;3.75;1.35;;;15.40;99.90;;;;;;5056737;28;20021;-73
2023/05/05 11:06:06;;;;;;;8.35;1.20;;;15.30;99.90;;;;;;5074518;28;20020;-73
2023/05/05 11:08:42;;;;;;;3.75;1.05;;;15.30;99.90;;;;;;5074509;28;20408;-73
2023/05/05 11:11:09;;;;;;;2.03;0.68;;;15.20;99.90;;;;;;5056570;28;20028;-73
2023/05/05 11:13:36;;;;;;;2.65;1.13;;;15.20;99.90;;;;;;5074131;28;20028;-73
2023/05/05 11:16:02;;;;;;;5.13;0.85;;;15.10;99.90;;;;;;5074349;28;20025;-73
2023/05/05 11:18:34;;;;;;;4.82;0.82;;;15.00;99.90;;;;;;5056324;28;20430;-73
2023/05/05 11:21:04;;;;;;;1.33;0.70;;;15.00;99.90;;;;;;5074703;28;20021;-73
2023/05/05 11:23:30;;;;;;;4.25;0.73;;;15.00;99.90;;;;;;5074227;28;20055;-73
2023/05/05 11:25:56;;;;;;;5.63;0.65;;;15.00;99.90;;;;;;5074085;28;20025;-73
2023/05/05 11:28:29;;;;;;;4.95;1.33;;;15.10;99.90;;;;;;5074508;28;20470;-73
2023/05/05 11:30:55;;;;;;;4.95;0.50;;;15.10;99.90;;;;;;5074136;28;20052;-73
2023/05/05 11:33:36;;;;;;;2.72;0.90;;;15.10;99.90;;;;;;5056028;28;20492;-73
2023/05/05 11:36:06;;;;;;;5.13;1.00;;;15.10;99.90;;;;;;5074085;28;20020;-73
2023/05/05 11:38:35;;;;;;;7.60;1.08;;;15.10;99.90;;;;;;5073957;28;20478;-73
2023/05/05 11:41:23;;;;;;;4.30;0.85;;;15.20;99.90;;;;;;5074052;28;20533;-73
2023/05/05 11:43:49;;;;;;;5.90;0.75;;;15.20;99.90;;;;;;5074454;28;20395;-73
2023/05/05 11:46:18;;;;;;;6.00;1.42;;;15.20;99.90;;;;;;5073862;28;20099;-73
2023/05/05 11:48:44;;;;;;;3.65;0.93;;;15.20;99.90;;;;;;5073797;28;20028;-73
2023/05/05 11:51:15;;;;;;;5.68;0.88;;;15.20;99.90;;;;;;5055844;28;20480;-74
2023/05/05 11:53:47;;;;;;;4.05;0.85;;;15.20;99.90;;;;;;5055835;28;20101;-74
2023/05/05 11:56:21;;;;;;;5.07;1.00;;;15.20;99.90;;;;;;5073744;28;20031;-74
2023/05/05 11:59:07;;;;;;;1.92;0.73;;;15.30;99.90;;;;;;5073669;28;20055;-73
2023/05/05 12:01:34;;;;;;;3.10;1.02;;;15.30;99.90;;;;;;5055787;28;20036;-73
2023/05/05 12:03:59;;;;;;;3.30;1.05;;;15.40;99.90;;;;;;5074215;28;20373;-73
2023/05/05 12:06:26;;;;;;;3.25;1.40;;;15.40;99.90;;;;;;5073570;28;20017;-73
2023/05/05 12:08:52;;;;;;;3.50;1.00;;;15.40;99.90;;;;;;5049422;28;20511;-73
2023/05/05 12:11:18;;;;;;;2.65;0.63;;;15.50;99.90;;;;;;5053459;28;20120;-73
2023/05/05 12:13:43;;;;;;;3.50;0.65;;;15.50;99.90;;;;;;5053981;28;20093;-74
2023/05/05 12:16:10;;;;;;;3.97;0.90;;;15.60;99.90;;;;;;5053449;28;20025;-74
2023/05/05 12:18:36;;;;;;;8.07;1.40;;;15.70;99.90;;;;;;5053305;28;20096;-73
2023/05/05 12:21:11;;;;;;;5.03;1.65;;;15.70;99.90;;;;;;5053959;28;20044;-74
2023/05/05 12:23:37;;;;;;;6.10;0.98;;;15.70;99.90;;;;;;5052818;28;20455;-74
2023/05/05 12:26:03;;;;;;;10.15;2.65;;;15.80;99.90;;;;;;5053322;28;20381;-74
2023/05/05 12:28:47;;;;;;;4.32;1.30;;;15.70;99.90;;;;;;5053121;28;20025;-73
2023/05/05 12:31:12;;;;;;;5.45;1.20;;;15.70;99.90;;;;;;5053202;28;20029;-73
2023/05/05 12:33:39;;;;;;;8.70;1.67;;;15.70;99.90;;;;;;5052946;28;20504;-73
2023/05/05 12:36:06;;;;;;;3.53;1.58;;;15.60;99.90;;;;;;5052916;28;20033;-73
2023/05/05 12:38:31;;;;;;;4.10;1.60;;;15.60;99.90;;;;;;5035290;28;20553;-73
2023/05/05 12:40:57;;;;;;;3.90;2.08;;;15.60;99.90;;;;;;5053401;28;20025;-74
2023/05/05 12:43:24;;;;;;;6.47;1.85;;;15.50;99.90;;;;;;5053025;28;20488;-73
2023/05/05 12:46:04;;;;;;;5.75;2.40;;;16.20;99.90;;;;;;5052951;28;20029;-74
2023/05/05 12:48:31;;;;;;;8.57;2.88;;;;;;;;;;5052841;28;20025;-73
2023/05/05 12:51:35;;;;;;;6.68;2.53;;;15.60;99.90;;;;;;5035370;28;20423;-73
2023/05/05 12:54:10;;;;;;;6.30;2.40;;;15.50;99.90;;;;;;5002143;28;20048;-74